Four Marks, United Kingdom
Current Conditions -  °F | °C
As of 8:24 PM on Monday 24 Nov 2014 (Local Time) from EGVO Reporting Station
Light Fog Light Fog  
Wind Chill: -1°   Ceiling: Unl
Heat Index:   Visibility: 1.8mi
Dew Point:   Wind: 5mph
Humidity: 100%   Direction: 20°NNE
Pressure: 30.33"   Gusts: NA
Location:  51.11°N, 1.05°W
Report Text: EGVO 242024Z 02004KT 3000 MIFG FEW250 01/01 Q1027 YLO1 TEMPO 0500 FG VV/// RED
Loading
Personal Weather Stations






























Interactive Weather Map New forecast layout! Learn more

10-Day Weather Forecast

Advertisements
Track Severe Weather on mobile